Aquilla, Alabama
Current Conditions -  °F | °C
As of 1:58 PM on Tuesday 21 Oct 2014 (Local Time) from KMEI Reporting Station
Clear Clear  
Wind Chill: 25°   Ceiling: Unl
Heat Index: 26°   Visibility: 10mi
Dew Point: 13°   Wind: 7mph
Humidity: 46%   Direction: 290°WNW
Pressure: 30.02"   Gusts: NA
Location:  31.6272°N, 88.354°W
Report Text: KMEI 211858Z 29006KT 10SM CLR 25/13 A3002 RMK AO2 SLP165 T02500128
Loading
Personal Weather Stations






























Interactive Weather Map New forecast layout! Learn more

10-Day Weather Forecast

Advertisements
Track Severe Weather on mobile